createdAt,value
2019-05-14T00:02:02.744Z,63.70
2019-05-14T00:04:31.655Z,64.00
2019-05-14T00:07:01.174Z,64.20
2019-05-14T00:09:32.209Z,64.30
2019-05-14T00:12:02.611Z,64.40
2019-05-14T00:14:39.757Z,64.50
2019-05-14T00:17:03.289Z,64.50
2019-05-14T00:19:32.588Z,64.70
2019-05-14T00:22:02.189Z,64.70
2019-05-14T00:24:32.363Z,64.90
2019-05-14T00:27:02.191Z,65.10
2019-05-14T00:29:32.128Z,65.30
2019-05-14T00:32:01.938Z,65.50
2019-05-14T00:34:31.635Z,65.70
2019-05-14T00:37:01.552Z,65.90
2019-05-14T00:39:32.008Z,66.00
2019-05-14T00:42:01.843Z,66.30
2019-05-14T00:44:32.343Z,66.10
2019-05-14T00:47:02.296Z,66.30
2019-05-14T00:49:32.060Z,66.30
2019-05-14T00:52:02.358Z,66.40
2019-05-14T00:54:32.239Z,66.60
2019-05-14T00:57:01.763Z,66.90
2019-05-14T00:59:32.184Z,67.00
2019-05-14T01:02:03.078Z,67.30
2019-05-14T01:04:32.627Z,67.50
2019-05-14T01:07:01.928Z,67.60
2019-05-14T01:09:31.613Z,67.80
2019-05-14T01:12:01.871Z,67.80
2019-05-14T01:14:31.842Z,68.00
2019-05-14T01:17:02.019Z,68.40
2019-05-14T01:19:31.737Z,68.50
2019-05-14T01:22:01.730Z,68.70
2019-05-14T01:24:33.124Z,68.80
2019-05-14T01:27:02.383Z,68.80
2019-05-14T01:29:31.945Z,68.80
2019-05-14T01:32:01.484Z,68.80
2019-05-14T01:34:32.400Z,69.00
2019-05-14T01:37:02.556Z,69.10
2019-05-14T01:39:32.183Z,69.20
2019-05-14T01:42:02.479Z,69.30
2019-05-14T01:44:32.041Z,69.20
2019-05-14T01:47:01.963Z,69.20
2019-05-14T01:49:31.871Z,69.50
2019-05-14T01:52:01.886Z,70.70
2019-05-14T01:54:31.789Z,69.90
2019-05-14T01:57:02.137Z,69.90
2019-05-14T01:59:32.307Z,70.00
2019-05-14T02:02:02.387Z,70.20
2019-05-14T02:04:31.940Z,70.20
2019-05-14T02:07:02.278Z,70.10
2019-05-14T02:09:32.106Z,70.10
2019-05-14T02:12:02.448Z,70.10
2019-05-14T02:14:31.763Z,70.30
2019-05-14T02:17:01.963Z,70.50
2019-05-14T02:19:31.840Z,70.50
2019-05-14T02:22:02.086Z,70.60
2019-05-14T02:24:32.232Z,70.80
2019-05-14T02:27:01.995Z,70.80
2019-05-14T02:29:32.085Z,70.80
2019-05-14T02:32:01.558Z,70.70
2019-05-14T02:34:30.803Z,70.60
2019-05-14T02:37:00.557Z,70.50
2019-05-14T02:39:29.920Z,70.60
2019-05-14T02:41:59.316Z,70.70
2019-05-14T02:44:29.934Z,70.80
2019-05-14T02:46:59.586Z,71.00
2019-05-14T02:49:29.937Z,71.00
2019-05-14T02:51:59.533Z,71.10
2019-05-14T02:54:29.682Z,71.10
2019-05-14T02:57:00.087Z,71.10
2019-05-14T02:59:30.617Z,71.10
2019-05-14T03:02:00.177Z,71.20
2019-05-14T03:04:30.209Z,71.20
2019-05-14T03:06:59.617Z,71.20
2019-05-14T03:09:29.552Z,71.30
2019-05-14T03:11:59.673Z,71.30
2019-05-14T03:14:30.302Z,71.40
2019-05-14T03:17:00.011Z,71.50
2019-05-14T03:19:29.962Z,71.70
2019-05-14T03:22:00.398Z,71.80
2019-05-14T03:24:30.899Z,72.20
2019-05-14T03:27:00.247Z,72.20
2019-05-14T03:29:30.666Z,72.20
2019-05-14T03:32:02.886Z,72.20
2019-05-14T03:34:33.163Z,72.50
2019-05-14T03:37:03.769Z,72.80
2019-05-14T03:39:33.257Z,72.80
2019-05-14T03:42:02.658Z,72.90
2019-05-14T03:44:31.993Z,73.00
2019-05-14T03:47:04.953Z,73.20
2019-05-14T03:49:32.233Z,73.30
2019-05-14T03:52:01.625Z,73.50
2019-05-14T03:54:31.236Z,73.80
2019-05-14T03:57:00.659Z,74.00
2019-05-14T03:59:30.099Z,74.10
2019-05-14T04:01:59.901Z,74.20
2019-05-14T04:04:30.195Z,74.20
2019-05-14T04:07:02.593Z,74.20
2019-05-14T04:09:33.717Z,74.40
2019-05-14T04:12:04.377Z,74.60
2019-05-14T04:14:34.500Z,74.70
2019-05-14T04:17:11.257Z,74.90
2019-05-14T04:19:39.429Z,75.30
2019-05-14T04:22:12.121Z,75.50
2019-05-14T04:24:43.202Z,75.70
2019-05-14T04:27:15.981Z,75.90
2019-05-14T04:29:49.628Z,76.10
2019-05-14T04:32:20.333Z,76.20
2019-05-14T04:34:50.117Z,76.40
2019-05-14T04:37:20.265Z,76.70
2019-05-14T04:39:50.550Z,77.10
2019-05-14T04:42:20.510Z,77.30
2019-05-14T04:44:50.724Z,77.60
2019-05-14T04:47:31.199Z,77.80
2019-05-14T04:49:51.079Z,78.00
2019-05-14T04:52:20.782Z,78.30
2019-05-14T04:54:50.341Z,78.20
2019-05-14T04:57:22.648Z,78.40
2019-05-14T04:59:50.682Z,78.70
2019-05-14T05:02:20.170Z,78.70
2019-05-14T05:04:50.576Z,78.80
2019-05-14T05:07:20.473Z,78.80
2019-05-14T05:09:50.480Z,78.80
2019-05-14T05:12:20.472Z,78.90
2019-05-14T05:14:49.924Z,78.90
2019-05-14T05:17:19.748Z,79.00
2019-05-14T05:19:51.591Z,79.20
2019-05-14T05:22:20.155Z,79.10
2019-05-14T05:24:49.432Z,79.00
2019-05-14T05:27:18.727Z,79.20
2019-05-14T05:29:48.714Z,79.50
2019-05-14T05:32:19.369Z,79.40
2019-05-14T05:34:49.051Z,79.20
2019-05-14T05:37:19.092Z,79.00
2019-05-14T05:39:49.102Z,78.90
2019-05-14T05:42:18.988Z,78.70
2019-05-14T05:44:48.513Z,78.50
2019-05-14T05:47:18.469Z,78.40
2019-05-14T05:49:48.776Z,78.40
2019-05-14T05:52:19.083Z,78.40
2019-05-14T05:54:49.167Z,78.20
2019-05-14T05:57:18.888Z,78.20
2019-05-14T05:59:48.663Z,78.20
2019-05-14T06:02:18.806Z,78.30
2019-05-14T06:04:50.340Z,78.20
2019-05-14T06:07:19.723Z,77.90
2019-05-14T06:09:49.006Z,77.80
2019-05-14T06:12:19.001Z,77.90
2019-05-14T06:14:48.927Z,77.80
2019-05-14T06:17:19.195Z,77.60
2019-05-14T06:19:48.859Z,77.60
2019-05-14T06:22:18.822Z,77.80
2019-05-14T06:24:48.845Z,77.70
2019-05-14T06:27:18.375Z,77.50
2019-05-14T06:29:48.869Z,77.60
2019-05-14T06:32:18.826Z,77.70
2019-05-14T06:34:48.886Z,77.90
2019-05-14T06:37:19.293Z,77.80
2019-05-14T06:39:48.758Z,77.20
2019-05-14T06:42:19.270Z,76.80
2019-05-14T06:44:49.414Z,76.40
2019-05-14T06:47:19.006Z,76.00
2019-05-14T06:49:48.980Z,75.20
2019-05-14T06:52:18.808Z,74.40
2019-05-14T06:54:49.612Z,73.80
2019-05-14T06:57:19.217Z,73.40
2019-05-14T06:59:48.609Z,72.70
2019-05-14T07:02:19.407Z,72.80
2019-05-14T07:04:48.814Z,71.60
2019-05-14T07:07:20.672Z,71.30
2019-05-14T07:09:49.129Z,70.80
2019-05-14T07:12:19.121Z,70.60
2019-05-14T07:14:48.888Z,70.20
2019-05-14T07:17:18.464Z,69.50
2019-05-14T07:19:49.110Z,69.20
2019-05-14T07:22:19.553Z,69.20
2019-05-14T07:24:49.926Z,68.70
2019-05-14T07:27:19.466Z,68.10
2019-05-14T07:29:49.357Z,67.70
2019-05-14T07:32:19.295Z,67.30
2019-05-14T07:34:48.683Z,66.40
2019-05-14T07:37:18.197Z,65.60
2019-05-14T07:39:48.739Z,65.10
2019-05-14T07:42:18.496Z,64.50
2019-05-14T07:44:48.537Z,64.00
2019-05-14T07:47:18.709Z,63.40
2019-05-14T07:49:48.951Z,62.90
2019-05-14T07:52:19.684Z,62.60
2019-05-14T07:54:49.293Z,62.20
2019-05-14T07:57:19.106Z,61.80
2019-05-14T07:59:48.644Z,61.40
2019-05-14T08:02:19.550Z,61.20
2019-05-14T08:04:49.125Z,61.00
2019-05-14T08:07:18.567Z,60.60
2019-05-14T08:09:48.161Z,60.30
2019-05-14T08:12:19.323Z,60.10
2019-05-14T08:15:09.133Z,60.00
2019-05-14T08:17:19.664Z,59.80
2019-05-14T08:19:49.314Z,59.40
2019-05-14T08:22:18.805Z,59.20
2019-05-14T08:24:48.967Z,58.90
2019-05-14T08:27:19.231Z,58.80
2019-05-14T08:29:48.990Z,58.80
2019-05-14T08:32:19.085Z,58.70
2019-05-14T08:34:48.592Z,59.20
2019-05-14T08:37:19.088Z,58.50
2019-05-14T08:39:48.895Z,58.40
2019-05-14T08:42:18.749Z,58.00
2019-05-14T08:44:51.233Z,57.90
2019-05-14T08:50:59.916Z,57.50
2019-05-14T08:53:29.268Z,57.40
2019-05-14T08:55:59.016Z,57.40
2019-05-14T08:58:30.091Z,57.20
2019-05-14T09:00:59.705Z,57.00
2019-05-14T09:03:29.058Z,56.50
2019-05-14T09:06:00.654Z,55.80
2019-05-14T09:08:29.463Z,55.30
2019-05-14T09:10:59.157Z,55.00
2019-05-14T09:13:29.075Z,54.70
2019-05-14T09:15:58.540Z,54.40
2019-05-14T09:18:29.124Z,54.00
2019-05-14T09:20:58.619Z,53.60
2019-05-14T09:23:28.709Z,53.30
2019-05-14T09:25:58.856Z,53.10
2019-05-14T09:28:28.680Z,53.00
2019-05-14T09:30:59.588Z,52.90
2019-05-14T09:33:29.777Z,52.80
2019-05-14T09:36:12.155Z,52.50
2019-05-14T09:38:30.423Z,52.30
2019-05-14T09:41:11.372Z,52.10
2019-05-14T09:43:30.764Z,52.00
2019-05-14T09:46:00.071Z,52.70
2019-05-14T09:48:29.322Z,51.90
2019-05-14T09:50:58.760Z,51.90
2019-05-14T09:53:28.864Z,51.60
2019-05-14T09:55:58.474Z,51.50
2019-05-14T09:58:28.382Z,51.20
2019-05-14T10:00:59.131Z,50.90
2019-05-14T10:03:28.738Z,50.90
2019-05-14T10:05:58.968Z,50.90
2019-05-14T10:08:28.688Z,50.80
2019-05-14T10:11:00.345Z,50.60
2019-05-14T10:13:28.905Z,50.40
2019-05-14T10:15:58.881Z,50.30
2019-05-14T10:18:28.561Z,50.40
2019-05-14T10:20:59.033Z,50.50
2019-05-14T10:23:28.585Z,50.20
2019-05-14T10:25:58.214Z,49.80
2019-05-14T10:28:28.872Z,49.70
2019-05-14T10:31:00.624Z,49.70
2019-05-14T10:33:29.878Z,49.70
2019-05-14T10:35:59.218Z,49.60
2019-05-14T10:38:29.501Z,49.30
2019-05-14T10:40:59.191Z,49.10
2019-05-14T10:43:28.998Z,48.90
2019-05-14T10:45:58.451Z,48.70
2019-05-14T10:48:29.111Z,48.70
2019-05-14T10:51:03.207Z,48.80
2019-05-14T10:53:29.618Z,48.80
2019-05-14T10:55:58.919Z,48.70
2019-05-14T10:58:29.065Z,49.50
2019-05-14T11:00:59.106Z,48.70
2019-05-14T11:03:30.069Z,48.40
2019-05-14T11:05:59.533Z,48.30
2019-05-14T11:08:29.661Z,48.00
2019-05-14T11:11:03.640Z,47.70
2019-05-14T11:13:30.213Z,47.40
2019-05-14T11:15:59.857Z,46.60
2019-05-14T11:18:29.494Z,45.90
2019-05-14T11:21:17.681Z,45.90
2019-05-14T11:23:30.131Z,45.90
2019-05-14T11:25:59.609Z,45.70
2019-05-14T11:28:28.934Z,45.30
2019-05-14T11:30:58.165Z,44.70
2019-05-14T11:33:29.581Z,44.60
2019-05-14T11:35:58.615Z,44.60
2019-05-14T11:38:36.631Z,44.30
2019-05-14T11:40:58.976Z,44.00
2019-05-14T11:43:28.833Z,43.50
2019-05-14T11:45:59.401Z,43.00
2019-05-14T11:48:28.745Z,42.30
2019-05-14T11:50:59.495Z,41.40
2019-05-14T11:53:29.192Z,40.90
2019-05-14T11:55:58.782Z,40.50
2019-05-14T11:58:29.498Z,40.60
2019-05-14T12:00:59.119Z,41.00
2019-05-14T12:03:28.671Z,41.10
2019-05-14T12:05:58.624Z,41.00
2019-05-14T12:08:28.838Z,39.80
2019-05-14T12:10:59.338Z,39.00
2019-05-14T12:13:32.622Z,38.60
2019-05-14T12:15:59.912Z,39.00
2019-05-14T12:18:29.326Z,38.70
2019-05-14T12:20:59.356Z,39.20
2019-05-14T12:23:29.777Z,39.60
2019-05-14T12:25:59.229Z,40.00
2019-05-14T12:28:29.123Z,40.30
2019-05-14T12:30:58.596Z,40.70
2019-05-14T12:33:30.822Z,41.00
2019-05-14T12:36:00.567Z,41.30
2019-05-14T12:38:29.924Z,41.70
2019-05-14T12:40:59.238Z,41.80
2019-05-14T12:43:28.639Z,42.10
2019-05-14T12:45:59.302Z,42.20
2019-05-14T12:48:29.751Z,42.30
2019-05-14T12:50:59.567Z,42.30
2019-05-14T12:53:29.013Z,42.30
2019-05-14T12:55:58.587Z,42.50
2019-05-14T12:58:28.574Z,42.40
2019-05-14T13:00:59.455Z,42.50
2019-05-14T13:03:28.873Z,42.30
2019-05-14T13:05:58.616Z,41.90
2019-05-14T13:08:28.036Z,41.60
2019-05-14T13:10:58.664Z,41.50
2019-05-14T13:13:29.017Z,41.50
2019-05-14T13:15:58.501Z,41.50
2019-05-14T13:18:29.144Z,41.40
2019-05-14T13:20:58.535Z,41.30
2019-05-14T13:23:29.262Z,41.50
2019-05-14T13:25:59.332Z,41.90
2019-05-14T13:28:29.226Z,42.20
2019-05-14T13:30:59.633Z,42.00
2019-05-14T13:33:29.091Z,42.00
2019-05-14T13:35:59.350Z,41.80
2019-05-14T13:38:28.946Z,41.60
2019-05-14T13:40:59.478Z,41.60
2019-05-14T13:43:30.406Z,41.70
2019-05-14T13:46:00.020Z,41.70
2019-05-14T13:48:29.778Z,41.50
2019-05-14T13:50:59.360Z,41.60
2019-05-14T13:53:29.504Z,41.40
2019-05-14T13:55:59.131Z,41.30
2019-05-14T13:58:28.768Z,41.40
2019-05-14T14:00:59.158Z,41.70
2019-05-14T14:03:29.424Z,41.80
2019-05-14T14:05:59.519Z,41.60
2019-05-14T14:08:29.349Z,41.60
2019-05-14T14:11:02.630Z,41.50
2019-05-14T14:13:31.526Z,41.60
2019-05-14T14:16:00.819Z,41.40
2019-05-14T14:18:30.112Z,41.20
2019-05-14T14:20:59.363Z,41.20
2019-05-14T14:23:31.215Z,41.10
2019-05-14T14:25:59.939Z,41.00
2019-05-14T14:28:29.292Z,40.80
2019-05-14T14:30:58.599Z,40.60
2019-05-14T14:33:28.910Z,40.00
2019-05-14T14:35:58.883Z,39.60
2019-05-14T14:38:29.366Z,39.00
2019-05-14T14:40:58.926Z,38.80
2019-05-14T14:43:29.529Z,38.60
2019-05-14T14:45:59.490Z,38.60
2019-05-14T14:48:30.200Z,38.30
2019-05-14T14:50:59.959Z,38.00
2019-05-14T14:53:42.855Z,37.50
2019-05-14T14:56:00.573Z,37.10
2019-05-14T14:58:30.080Z,37.00
2019-05-14T15:00:59.579Z,36.90
2019-05-14T15:03:30.329Z,36.70
2019-05-14T15:05:59.592Z,36.60
2019-05-14T15:08:29.491Z,36.70
2019-05-14T15:10:59.469Z,36.70
2019-05-14T15:13:28.909Z,36.70
2019-05-14T15:16:01.067Z,36.70
2019-05-14T15:18:29.240Z,36.90
2019-05-14T15:20:58.900Z,37.00
2019-05-14T15:23:28.748Z,37.00
2019-05-14T15:25:58.932Z,37.20
2019-05-14T15:28:28.915Z,37.30
2019-05-14T15:30:59.529Z,37.60
2019-05-14T15:33:29.392Z,37.50
2019-05-14T15:35:58.839Z,37.50
2019-05-14T15:38:30.519Z,37.70
2019-05-14T15:40:59.651Z,38.50
2019-05-14T15:43:29.121Z,38.00
2019-05-14T15:45:58.964Z,38.30
2019-05-14T15:48:28.386Z,38.70
2019-05-14T15:50:59.936Z,39.60
2019-05-14T15:53:29.117Z,39.30
2019-05-14T15:55:58.513Z,39.60
2019-05-14T15:58:30.211Z,39.80
2019-05-14T16:01:01.198Z,40.00
2019-05-14T16:03:30.921Z,40.30
2019-05-14T16:06:00.525Z,40.40
2019-05-14T16:08:29.851Z,40.70
2019-05-14T16:11:00.324Z,41.00
2019-05-14T16:13:29.883Z,41.20
2019-05-14T16:15:59.294Z,41.60
2019-05-14T16:18:29.089Z,41.80
2019-05-14T16:20:59.341Z,41.80
2019-05-14T16:23:28.769Z,41.80
2019-05-14T16:25:59.005Z,42.00
2019-05-14T16:28:28.878Z,42.30
2019-05-14T16:30:59.072Z,42.40
2019-05-14T16:33:29.408Z,42.50
2019-05-14T16:35:59.843Z,42.70
2019-05-14T16:38:29.189Z,42.90
2019-05-14T16:40:59.568Z,43.20
2019-05-14T16:43:32.124Z,43.20
2019-05-14T16:46:00.274Z,43.40
2019-05-14T16:48:29.665Z,43.60
2019-05-14T16:50:59.000Z,43.80
2019-05-14T16:53:28.855Z,44.00
2019-05-14T16:55:58.191Z,44.10
2019-05-14T16:58:29.248Z,44.10
2019-05-14T17:00:58.915Z,44.20
2019-05-14T17:03:29.750Z,44.30
2019-05-14T17:05:59.502Z,44.40
2019-05-14T17:08:28.871Z,44.50
2019-05-14T17:10:59.088Z,44.70
2019-05-14T17:13:28.621Z,44.90
2019-05-14T17:15:58.952Z,45.20
2019-05-14T17:18:28.850Z,45.40
2019-05-14T17:20:59.471Z,45.60
2019-05-14T17:23:28.783Z,45.80
2019-05-14T17:25:58.275Z,46.00
2019-05-14T17:28:28.587Z,46.20
2019-05-14T17:30:58.380Z,46.20
2019-05-14T17:33:29.185Z,46.40
2019-05-14T17:35:58.893Z,46.60
2019-05-14T17:38:29.164Z,46.60
2019-05-14T17:40:59.897Z,46.60
2019-05-14T17:43:29.271Z,46.70
2019-05-14T17:45:58.874Z,46.90
2019-05-14T17:48:28.542Z,47.00
2019-05-14T17:50:58.951Z,47.90
2019-05-14T17:53:29.074Z,47.30
2019-05-14T17:55:59.301Z,47.40
2019-05-14T17:58:28.832Z,47.40
2019-05-14T18:00:58.335Z,47.60
2019-05-14T18:03:29.050Z,47.60
2019-05-14T18:05:58.613Z,47.60
2019-05-14T18:08:29.943Z,47.60
2019-05-14T18:11:01.550Z,47.80
2019-05-14T18:13:30.008Z,48.00
2019-05-14T18:15:59.298Z,48.10
2019-05-14T18:18:29.147Z,48.30
2019-05-14T18:20:58.553Z,48.40
2019-05-14T18:23:28.920Z,48.50
2019-05-14T18:26:08.053Z,48.60
2019-05-14T18:28:29.617Z,48.80
2019-05-14T18:30:59.015Z,48.90
2019-05-14T18:33:31.129Z,48.90
2019-05-14T18:35:59.230Z,48.90
2019-05-14T18:38:29.076Z,49.00
2019-05-14T18:40:58.798Z,49.10
2019-05-14T18:43:29.020Z,49.40
2019-05-14T18:45:58.695Z,49.60
2019-05-14T18:48:28.926Z,49.70
2019-05-14T18:50:59.343Z,49.90
2019-05-14T18:53:28.762Z,50.00
2019-05-14T18:55:59.689Z,50.00
2019-05-14T18:58:29.434Z,50.10
2019-05-14T19:00:58.794Z,50.10
2019-05-14T19:03:28.692Z,50.20
2019-05-14T19:05:58.707Z,50.20
2019-05-14T19:08:28.980Z,50.30
2019-05-14T19:10:59.411Z,50.20
2019-05-14T19:13:28.923Z,50.20
2019-05-14T19:15:59.142Z,50.20
2019-05-14T19:18:28.856Z,50.10
2019-05-14T19:20:59.233Z,50.10
2019-05-14T19:23:29.174Z,50.10
2019-05-14T19:25:59.255Z,50.00
2019-05-14T19:28:29.088Z,50.10
2019-05-14T19:30:59.591Z,50.30
2019-05-14T19:33:29.026Z,50.40
2019-05-14T19:35:58.334Z,50.40
2019-05-14T19:38:27.660Z,50.50
2019-05-14T19:40:57.044Z,50.50
2019-05-14T19:43:26.336Z,50.50
2019-05-14T19:45:55.624Z,50.50
2019-05-14T19:48:24.881Z,50.60
2019-05-14T19:50:54.180Z,50.70
2019-05-14T19:53:23.499Z,50.70
2019-05-14T19:55:53.049Z,50.70
2019-05-14T19:58:22.300Z,50.70
2019-05-14T20:00:51.672Z,50.70
2019-05-14T20:03:21.042Z,50.60
2019-05-14T20:05:50.345Z,50.60
2019-05-14T20:08:19.650Z,50.70
2019-05-14T20:10:49.164Z,50.60
2019-05-14T20:13:19.446Z,50.60
2019-05-14T20:15:49.002Z,50.60
2019-05-14T20:18:18.320Z,50.70
2019-05-14T20:20:49.260Z,50.70
2019-05-14T20:23:18.706Z,50.70
2019-05-14T20:25:48.280Z,50.70
2019-05-14T20:28:19.019Z,50.70
2019-05-14T20:30:49.286Z,50.70
2019-05-14T20:33:19.207Z,50.60
2019-05-14T20:35:48.862Z,50.80
2019-05-14T20:38:18.601Z,50.90
2019-05-14T20:40:48.715Z,51.10
2019-05-14T20:43:18.769Z,51.20
2019-05-14T20:45:48.913Z,51.20
2019-05-14T20:48:18.969Z,51.20
2019-05-14T20:50:48.488Z,51.40
2019-05-14T20:53:18.496Z,51.90
2019-05-14T20:55:48.515Z,51.30
2019-05-14T20:58:19.989Z,51.50
2019-05-14T21:00:48.797Z,51.60
2019-05-14T21:03:18.762Z,51.60
2019-05-14T21:05:49.046Z,51.60
2019-05-14T21:08:18.894Z,51.80
2019-05-14T21:10:49.400Z,51.80
2019-05-14T21:13:18.918Z,51.90
2019-05-14T21:15:48.429Z,52.10
2019-05-14T21:18:18.933Z,52.20
2019-05-14T21:20:48.925Z,52.20
2019-05-14T21:23:18.520Z,52.30
2019-05-14T21:25:48.344Z,52.30
2019-05-14T21:28:17.780Z,52.30
2019-05-14T21:30:48.527Z,52.40
2019-05-14T21:33:18.108Z,52.40
2019-05-14T21:35:48.597Z,52.50
2019-05-14T21:38:19.202Z,52.50
2019-05-14T21:40:49.957Z,52.60
2019-05-14T21:43:19.531Z,52.60
2019-05-14T21:45:49.049Z,52.70
2019-05-14T21:48:19.887Z,52.80
2019-05-14T21:50:49.464Z,52.90
2019-05-14T21:53:19.157Z,52.90
2019-05-14T21:55:48.536Z,53.00
2019-05-14T21:58:19.611Z,53.30
2019-05-14T22:00:52.253Z,53.10
2019-05-14T22:03:21.736Z,53.10
2019-05-14T22:05:51.815Z,53.10
2019-05-14T22:08:21.187Z,53.30
2019-05-14T22:10:50.565Z,53.30
2019-05-14T22:13:19.875Z,53.30
2019-05-14T22:15:49.456Z,53.60
2019-05-14T22:18:20.772Z,53.70
2019-05-14T22:20:49.804Z,53.80
2019-05-14T22:23:21.219Z,53.90
2019-05-14T22:25:50.123Z,54.90
2019-05-14T22:28:19.461Z,54.10
2019-05-14T22:30:48.749Z,54.10
2019-05-14T22:33:19.048Z,54.20
2019-05-14T22:35:48.641Z,54.20
2019-05-14T22:38:20.249Z,54.30
2019-05-14T22:40:48.984Z,54.30
2019-05-14T22:43:18.382Z,54.30
2019-05-14T22:45:48.082Z,54.40
2019-05-14T22:48:18.638Z,54.50
2019-05-14T22:50:48.696Z,54.70
2019-05-14T22:53:18.109Z,54.90
2019-05-14T22:55:49.138Z,55.00
2019-05-14T22:58:25.551Z,55.30
2019-05-14T23:01:02.300Z,55.40
2019-05-14T23:03:21.225Z,55.50
2019-05-14T23:05:50.722Z,55.60
2019-05-14T23:08:19.987Z,55.80
2019-05-14T23:10:49.378Z,55.80
2019-05-14T23:13:18.762Z,55.80
2019-05-14T23:15:48.205Z,55.90
2019-05-14T23:18:18.167Z,56.00
2019-05-14T23:20:49.280Z,56.00
2019-05-14T23:23:18.642Z,56.00
2019-05-14T23:25:47.995Z,56.00
2019-05-14T23:28:19.207Z,56.00
2019-05-14T23:30:48.462Z,56.00
2019-05-14T23:33:19.143Z,56.00
2019-05-14T23:35:48.686Z,56.10
2019-05-14T23:38:19.029Z,56.00
2019-05-14T23:40:49.309Z,56.00
2019-05-14T23:43:18.909Z,56.00
2019-05-14T23:45:48.154Z,56.10
2019-05-14T23:48:18.860Z,56.00
2019-05-14T23:50:48.805Z,56.00
2019-05-14T23:53:18.555Z,56.10
2019-05-14T23:55:48.304Z,56.10
2019-05-14T23:58:20.654Z,56.20
